Time,TemperatureF,DewpointF,PressureIn,WindDirection,WindDirectionDegrees,WindSpeedMPH,WindSpeedGustMPH,Humidity,HourlyPrecipIn,Conditions,Clouds,dailyrainin,SoftwareType,DateUTC
2013-04-08 00:14:00,65.6,21.0,29.58,NW,309,4.0,6.0,18,0.00,,,0.00,weatherlink.com 1.10,2013-04-08 06:14:00,
2013-04-08 00:29:00,66.1,21.0,29.58,WNW,301,3.0,9.0,18,0.00,,,0.00,weatherlink.com 1.10,2013-04-08 06:29:00,
2013-04-08 00:44:00,65.1,19.0,29.57,West,260,0.0,6.0,17,0.00,,,0.00,weatherlink.com 1.10,2013-04-08 06:44:00,
2013-04-08 00:59:00,63.7,19.0,29.58,SSE,148,2.0,3.0,18,0.00,,,0.00,weatherlink.com 1.10,2013-04-08 06:59:00,
2013-04-08 01:14:00,63.2,19.0,29.58,WSW,245,0.0,4.0,18,0.00,,,0.00,weatherlink.com 1.10,2013-04-08 07:14:00,
2013-04-08 01:29:00,62.3,19.0,29.57,SSW,200,0.0,0.0,19,0.00,,,0.00,weatherlink.com 1.10,2013-04-08 07:29:00,
2013-04-08 01:59:00,63.1,20.0,29.57,East,91,2.0,3.0,19,0.00,,,0.00,weatherlink.com 1.10,2013-04-08 07:59:00,
2013-04-08 02:14:00,62.8,20.0,29.56,West,281,1.0,4.0,19,0.00,,,0.00,weatherlink.com 1.10,2013-04-08 08:14:00,
2013-04-08 02:29:00,61.7,21.0,29.56,NW,309,1.0,4.0,21,0.00,,,0.00,weatherlink.com 1.10,2013-04-08 08:29:00,
2013-04-08 02:44:00,61.1,21.0,29.56,NNW,327,0.0,2.0,21,0.00,,,0.00,weatherlink.com 1.10,2013-04-08 08:44:00,
2013-04-08 03:15:00,61.1,21.0,29.55,NNW,330,1.0,2.0,21,0.00,,,0.00,weatherlink.com 1.10,2013-04-08 09:15:00,
2013-04-08 03:45:00,60.1,21.0,29.55,WNW,297,0.0,0.0,22,0.00,,,0.00,weatherlink.com 1.10,2013-04-08 09:45:00,
2013-04-08 04:00:00,60.4,21.0,29.55,West,270,3.0,5.0,22,0.00,,,0.00,weatherlink.com 1.10,2013-04-08 10:00:00,
2013-04-08 04:15:00,59.7,22.0,29.55,North,349,0.0,0.0,23,0.00,,,0.00,weatherlink.com 1.10,2013-04-08 10:15:00,
2013-04-08 04:30:00,59.6,23.0,29.55,SE,139,0.0,-999.0,24,-99.99,,,0.00,weatherlink.com 1.10,2013-04-08 10:30:00,
2013-04-08 04:45:00,59.4,22.0,29.55,WSW,257,0.0,2.0,24,0.00,,,0.00,weatherlink.com 1.10,2013-04-08 10:45:00,
2013-04-08 05:00:00,58.9,23.0,29.55,North,9,1.0,2.0,25,0.00,,,0.00,weatherlink.com 1.10,2013-04-08 11:00:00,
2013-04-08 05:15:00,58.7,22.0,29.56,ENE,61,0.0,0.0,24,0.00,,,0.00,weatherlink.com 1.10,2013-04-08 11:15:00,
2013-04-08 05:30:00,58.9,23.0,29.56,East,84,1.0,3.0,25,0.00,,,0.00,weatherlink.com 1.10,2013-04-08 11:30:00,
2013-04-08 05:45:00,59.6,25.0,29.56,WNW,291,1.0,3.0,27,0.00,,,0.00,weatherlink.com 1.10,2013-04-08 11:45:00,
2013-04-08 06:00:00,59.0,26.0,29.56,WNW,293,0.0,7.0,28,0.00,,,0.00,weatherlink.com 1.10,2013-04-08 12:00:00,
2013-04-08 06:15:00,58.5,26.0,29.56,West,273,1.0,4.0,29,0.00,,,0.00,weatherlink.com 1.10,2013-04-08 12:15:00,
2013-04-08 06:30:00,58.1,27.0,29.56,West,266,1.0,3.0,30,0.00,,,0.00,weatherlink.com 1.10,2013-04-08 12:30:00,
2013-04-08 06:45:00,57.5,26.0,29.57,SW,225,0.0,2.0,30,0.00,,,0.00,weatherlink.com 1.10,2013-04-08 12:45:00,
2013-04-08 07:00:00,57.6,25.0,29.57,WNW,295,2.0,3.0,29,0.00,,,0.00,weatherlink.com 1.10,2013-04-08 13:00:00,
2013-04-08 07:15:00,58.0,23.0,29.56,WSW,243,1.0,5.0,26,0.00,,,0.00,weatherlink.com 1.10,2013-04-08 13:15:00,
2013-04-08 07:46:00,60.1,20.0,29.57,WSW,243,1.0,11.0,21,0.00,,,0.00,weatherlink.com 1.10,2013-04-08 13:46:00,
2013-04-08 08:00:00,60.4,20.0,29.57,SW,229,3.0,6.0,21,0.00,,,0.00,weatherlink.com 1.10,2013-04-08 14:00:00,
2013-04-08 08:15:00,62.0,20.0,29.57,WNW,286,3.0,4.0,20,0.00,,,0.00,weatherlink.com 1.10,2013-04-08 14:15:00,
2013-04-08 08:30:00,62.9,19.0,29.57,West,280,3.0,9.0,18,0.00,,,0.00,weatherlink.com 1.10,2013-04-08 14:30:00,
2013-04-08 08:45:00,63.6,20.0,29.58,NW,305,2.0,12.0,19,0.00,,,0.00,weatherlink.com 1.10,2013-04-08 14:45:00,
2013-04-08 09:00:00,64.3,20.0,29.57,WSW,246,4.0,9.0,18,0.00,,,0.00,weatherlink.com 1.10,2013-04-08 15:00:00,
2013-04-08 09:15:00,65.4,21.0,29.57,NW,309,2.0,9.0,18,0.00,,,0.00,weatherlink.com 1.10,2013-04-08 15:15:00,
2013-04-08 09:30:00,66.8,20.0,29.57,WNW,287,6.0,13.0,17,0.00,,,0.00,weatherlink.com 1.10,2013-04-08 15:30:00,
2013-04-08 09:45:00,67.0,21.0,29.56,WSW,243,10.0,16.0,17,0.00,,,0.00,weatherlink.com 1.10,2013-04-08 15:45:00,
2013-04-08 10:00:00,67.7,23.0,29.56,WNW,293,8.0,14.0,18,0.00,,,0.00,weatherlink.com 1.10,2013-04-08 16:00:00,
2013-04-08 10:16:00,68.3,22.0,29.55,WSW,242,14.0,15.0,17,0.00,,,0.00,weatherlink.com 1.10,2013-04-08 16:16:00,
2013-04-08 10:30:00,68.7,22.0,29.55,West,278,7.0,16.0,17,0.00,,,0.00,weatherlink.com 1.10,2013-04-08 16:30:00,
2013-04-08 10:45:00,69.0,22.0,29.55,WSW,246,8.0,14.0,17,0.00,,,0.00,weatherlink.com 1.10,2013-04-08 16:45:00,
2013-04-08 11:00:00,69.9,22.0,29.54,West,280,9.0,19.0,16,0.00,,,0.00,weatherlink.com 1.10,2013-04-08 17:00:00,
2013-04-08 11:15:00,70.9,24.0,29.53,WSW,257,5.0,12.0,17,0.00,,,0.00,weatherlink.com 1.10,2013-04-08 17:15:00,
2013-04-08 11:30:00,71.1,24.0,29.52,SW,221,12.0,13.0,17,0.00,,,0.00,weatherlink.com 1.10,2013-04-08 17:30:00,
2013-04-08 11:45:00,71.5,23.0,29.52,SW,221,12.0,21.0,16,0.00,,,0.00,weatherlink.com 1.10,2013-04-08 17:45:00,
2013-04-08 12:00:00,72.5,24.0,29.50,SW,221,13.0,17.0,16,0.00,,,0.00,weatherlink.com 1.10,2013-04-08 18:00:00,
2013-04-08 12:16:00,72.9,24.0,29.49,West,260,13.0,21.0,16,0.00,,,0.00,weatherlink.com 1.10,2013-04-08 18:16:00,
2013-04-08 12:31:00,73.2,24.0,29.48,SW,226,7.0,20.0,16,0.00,,,0.00,weatherlink.com 1.10,2013-04-08 18:31:00,
2013-04-08 12:46:00,74.2,24.0,29.46,SW,214,8.0,20.0,15,0.00,,,0.00,weatherlink.com 1.10,2013-04-08 18:46:00,
2013-04-08 14:01:00,77.0,24.0,29.40,WSW,241,12.0,26.0,14,0.00,,,0.00,weatherlink.com 1.10,2013-04-08 20:01:00,
2013-04-08 14:16:00,77.7,21.0,29.39,SSW,204,13.0,20.0,12,0.00,,,0.00,weatherlink.com 1.10,2013-04-08 20:16:00,
2013-04-08 14:31:00,78.3,22.0,29.38,SW,229,14.0,27.0,12,0.00,,,0.00,weatherlink.com 1.10,2013-04-08 20:31:00,
2013-04-08 14:46:00,78.9,20.0,29.37,SSW,200,9.0,-999.0,11,-99.99,,,0.00,weatherlink.com 1.10,2013-04-08 20:46:00,
2013-04-08 15:01:00,79.0,20.0,29.36,SW,221,20.0,20.0,11,0.00,,,0.00,weatherlink.com 1.10,2013-04-08 21:01:00,
2013-04-08 15:16:00,79.8,21.0,29.34,SSW,203,13.0,23.0,11,0.00,,,0.00,weatherlink.com 1.10,2013-04-08 21:16:00,
2013-04-08 15:31:00,79.9,19.0,29.33,SW,224,16.0,21.0,10,0.00,,,0.00,weatherlink.com 1.10,2013-04-08 21:31:00,
2013-04-08 15:46:00,81.4,17.0,29.32,SW,235,19.0,22.0,9,0.00,,,0.00,weatherlink.com 1.10,2013-04-08 21:46:00,
2013-04-08 16:01:00,81.7,15.0,29.31,West,281,9.0,25.0,8,0.00,,,0.00,weatherlink.com 1.10,2013-04-08 22:01:00,
2013-04-08 16:16:00,80.2,14.0,29.31,West,269,7.0,26.0,8,0.00,,,0.00,weatherlink.com 1.10,2013-04-08 22:16:00,
2013-04-08 16:46:00,79.9,10.0,29.31,WSW,249,11.0,25.0,7,0.00,,,0.00,weatherlink.com 1.10,2013-04-08 22:46:00,
2013-04-08 17:01:00,79.3,10.0,29.30,West,276,4.0,21.0,7,0.00,,,0.00,weatherlink.com 1.10,2013-04-08 23:01:00,
2013-04-08 17:16:00,78.8,13.0,29.30,NW,307,7.0,25.0,8,0.00,,,0.00,weatherlink.com 1.10,2013-04-08 23:16:00,
2013-04-08 17:32:00,78.6,15.0,29.30,WSW,257,13.0,22.0,9,0.00,,,0.00,weatherlink.com 1.10,2013-04-08 23:32:00,
2013-04-08 17:46:00,78.3,15.0,29.30,WNW,293,12.0,24.0,9,0.00,,,0.00,weatherlink.com 1.10,2013-04-08 23:46:00,
2013-04-08 18:01:00,78.1,17.0,29.29,WSW,239,12.0,24.0,10,0.00,,,0.00,weatherlink.com 1.10,2013-04-09 00:01:00,
2013-04-08 18:17:00,77.7,17.0,29.30,West,276,11.0,23.0,10,0.00,,,0.00,weatherlink.com 1.10,2013-04-09 00:17:00,
2013-04-08 18:32:00,77.1,16.0,29.30,SW,223,8.0,25.0,10,0.00,,,0.00,weatherlink.com 1.10,2013-04-09 00:32:00,
2013-04-08 18:47:00,76.6,16.0,29.30,WSW,249,7.0,16.0,10,0.00,,,0.00,weatherlink.com 1.10,2013-04-09 00:47:00,
2013-04-08 19:02:00,75.5,17.0,29.30,West,280,5.0,20.0,11,0.00,,,0.00,weatherlink.com 1.10,2013-04-09 01:02:00,
2013-04-08 19:17:00,74.8,17.0,29.30,West,262,18.0,19.0,11,0.00,,,0.00,weatherlink.com 1.10,2013-04-09 01:17:00,
2013-04-08 19:32:00,74.0,18.0,29.30,West,274,5.0,16.0,12,0.00,,,0.00,weatherlink.com 1.10,2013-04-09 01:32:00,
2013-04-08 19:47:00,73.5,20.0,29.30,West,259,7.0,20.0,13,0.00,,,0.00,weatherlink.com 1.10,2013-04-09 01:47:00,
2013-04-08 20:02:00,72.8,21.0,29.30,SW,228,4.0,15.0,14,0.00,,,0.00,weatherlink.com 1.10,2013-04-09 02:02:00,
2013-04-08 20:17:00,72.2,20.0,29.30,WSW,245,9.0,15.0,14,0.00,,,0.00,weatherlink.com 1.10,2013-04-09 02:17:00,
2013-04-08 20:32:00,71.6,21.0,29.31,SW,236,7.0,18.0,15,0.00,,,0.00,weatherlink.com 1.10,2013-04-09 02:32:00,
2013-04-08 20:47:00,71.0,22.0,29.31,South,187,7.0,13.0,16,0.00,,,0.00,weatherlink.com 1.10,2013-04-09 02:47:00,
2013-04-08 21:02:00,70.5,22.0,29.32,SW,235,5.0,12.0,16,0.00,,,0.00,weatherlink.com 1.10,2013-04-09 03:02:00,
2013-04-08 21:17:00,70.1,22.0,29.32,SSW,204,7.0,15.0,16,0.00,,,0.00,weatherlink.com 1.10,2013-04-09 03:17:00,
2013-04-08 21:32:00,69.5,23.0,29.32,South,181,1.0,9.0,17,0.00,,,0.00,weatherlink.com 1.10,2013-04-09 03:32:00,
2013-04-08 21:47:00,69.1,22.0,29.32,SSE,155,4.0,11.0,17,0.00,,,0.00,weatherlink.com 1.10,2013-04-09 03:47:00,
2013-04-08 22:02:00,69.4,21.0,29.32,SSW,210,6.0,14.0,16,0.00,,,0.00,weatherlink.com 1.10,2013-04-09 04:02:00,
2013-04-08 22:17:00,68.8,19.0,29.31,SE,143,3.0,18.0,15,0.00,,,0.00,weatherlink.com 1.10,2013-04-09 04:17:00,
2013-04-08 22:32:00,69.4,18.0,29.31,South,188,6.0,24.0,14,0.00,,,0.00,weatherlink.com 1.10,2013-04-09 04:32:00,
2013-04-08 22:47:00,69.6,18.0,29.31,WSW,240,15.0,20.0,14,0.00,,,0.00,weatherlink.com 1.10,2013-04-09 04:47:00,
2013-04-08 23:02:00,69.0,18.0,29.31,SW,228,5.0,16.0,14,0.00,,,0.00,weatherlink.com 1.10,2013-04-09 05:02:00,
2013-04-08 23:17:00,67.9,20.0,29.32,SSW,202,5.0,18.0,16,0.00,,,0.00,weatherlink.com 1.10,2013-04-09 05:17:00,
2013-04-08 23:32:00,67.0,21.0,29.32,WSW,257,7.0,13.0,17,0.00,,,0.00,weatherlink.com 1.10,2013-04-09 05:32:00,
2013-04-08 23:47:00,67.2,19.0,29.31,SSE,166,9.0,17.0,16,0.00,,,0.00,weatherlink.com 1.10,2013-04-09 05:47:00,